Estación de Odessa
Ultimos registro cada 15 minutos 76
| N° | Estación | Fecha / Hora | Temperatura | Humedad | Lluvia | Velocidad | Dirección | Radiación | Presion |
| 76 | Odessa | 08-05-2026 19:00 | 11,2 | 90 | 0 | 1,8 | 216 | 0 | 1021,2 |
| 75 | Odessa | 08-05-2026 18:45 | 11,4 | 89 | 0 | 2,2 | 187 | 0 | 1021,1 |
| 74 | Odessa | 08-05-2026 18:30 | 11,7 | 89 | 0 | 0,9 | 187 | 0 | 1021,2 |
| 73 | Odessa | 08-05-2026 18:15 | 11,9 | 88 | 0 | 0,9 | 206 | 0 | 1021,1 |
| 72 | Odessa | 08-05-2026 18:00 | 12,2 | 86 | 0 | 0,9 | 213 | 0 | 1021,1 |
| 71 | Odessa | 08-05-2026 17:45 | 12,5 | 86 | 0 | 1,3 | 228 | 7 | 1021,2 |
| 70 | Odessa | 08-05-2026 17:30 | 12,8 | 85 | 0 | 2,2 | 233 | 23 | 1021,2 |
| 69 | Odessa | 08-05-2026 17:15 | 12,9 | 84 | 0 | 0 | 210 | 39 | 1021,2 |
| 68 | Odessa | 08-05-2026 17:00 | 13,2 | 83 | 0 | 1,3 | 193 | 62 | 1021,4 |
| 67 | Odessa | 08-05-2026 16:45 | 13,3 | 81 | 0 | 1,3 | 231 | 74 | 1021,4 |
| 66 | Odessa | 08-05-2026 16:30 | 14 | 76 | 0 | 2,2 | 215 | 70 | 1021,3 |
| 65 | Odessa | 08-05-2026 16:15 | 15,2 | 70 | 0 | 1,8 | 206 | 250 | 1021,2 |
| 64 | Odessa | 08-05-2026 16:00 | 15,4 | 70 | 0 | 1,3 | 209 | 274 | 1021,2 |
| 63 | Odessa | 08-05-2026 15:45 | 15,5 | 71 | 0 | 3,6 | 187 | 339 | 1021,3 |
| 62 | Odessa | 08-05-2026 15:30 | 15,7 | 70 | 0 | 0,9 | 150 | 135 | 1021,4 |
| 61 | Odessa | 08-05-2026 15:15 | 15,8 | 70 | 0 | 3,6 | 172 | 401 | 1021,5 |
| 60 | Odessa | 08-05-2026 15:00 | 15,6 | 69 | 0 | 1,3 | 177 | 422 | 1021,5 |
| 59 | Odessa | 08-05-2026 14:45 | 15,4 | 71 | 0 | 1,3 | 154 | 450 | 1021,5 |
| 58 | Odessa | 08-05-2026 14:30 | 15,6 | 70 | 0 | 0,9 | 202 | 496 | 1021,5 |
| 57 | Odessa | 08-05-2026 14:15 | 15,7 | 69 | 0 | 1,3 | 165 | 420 | 1021,7 |
| 56 | Odessa | 08-05-2026 14:00 | 15,2 | 68 | 0 | 1,3 | 172 | 568 | 1021,8 |
| 55 | Odessa | 08-05-2026 13:45 | 15,1 | 69 | 0 | 1,8 | 206 | 571 | 1022 |
| 54 | Odessa | 08-05-2026 13:30 | 14,8 | 66 | 0 | 1,3 | 148 | 671 | 1022,2 |
| 53 | Odessa | 08-05-2026 13:15 | 14,4 | 67 | 0 | 1,3 | 202 | 330 | 1022,2 |
| 52 | Odessa | 08-05-2026 13:00 | 14,4 | 66 | 0 | 0,4 | 274 | 563 | 1022,5 |
| 51 | Odessa | 08-05-2026 12:45 | 14,2 | 70 | 0 | 0,4 | 143 | 388 | 1022,5 |
| 50 | Odessa | 08-05-2026 12:30 | 13,7 | 69 | 0 | 0,9 | 66 | 406 | 1022,9 |
| 49 | Odessa | 08-05-2026 12:15 | 13,5 | 71 | 0 | 0,4 | 46 | 376 | 1023 |
| 48 | Odessa | 08-05-2026 12:00 | 13,1 | 72 | 0 | 0,4 | 108 | 434 | 1023 |
| 47 | Odessa | 08-05-2026 11:45 | 12,5 | 76 | 0 | 0,4 | 286 | 454 | 1023,2 |
| 46 | Odessa | 08-05-2026 11:30 | 12,1 | 77 | 0 | 1,3 | 256 | 359 | 1023,3 |
| 45 | Odessa | 08-05-2026 11:00 | 12,1 | 77 | 0 | 0 | 266 | 309 | 1023,6 |
| 44 | Odessa | 08-05-2026 10:45 | 11,5 | 79 | 0 | 0,4 | 51 | 473 | 1023,5 |
| 43 | Odessa | 08-05-2026 10:30 | 10,9 | 82 | 0 | 0,9 | 345 | 510 | 1023,5 |
| 42 | Odessa | 08-05-2026 10:15 | 10,8 | 81 | 0 | 1,3 | 51 | 206 | 1023,5 |
| 41 | Odessa | 08-05-2026 10:00 | 10,6 | 82 | 0 | 2,2 | 31 | 364 | 1023,5 |
| 40 | Odessa | 08-05-2026 09:45 | 10 | 85 | 0 | 0,9 | 16 | 383 | 1023,8 |
| 39 | Odessa | 08-05-2026 09:30 | 9,1 | 87 | 0 | 0,9 | 41 | 334 | 1023,7 |
| 38 | Odessa | 08-05-2026 09:15 | 8,1 | 90 | 0 | 1,3 | 66 | 281 | 1024,1 |
| 37 | Odessa | 08-05-2026 09:00 | 6,9 | 92 | 0 | 0,4 | 79 | 237 | 1024,7 |
| 36 | Odessa | 08-05-2026 08:45 | 5,8 | 94 | 0 | 0,4 | 97 | 23 | 1024,5 |
| 35 | Odessa | 08-05-2026 08:30 | 5,1 | 95 | 0 | 0 | 141 | 162 | 1024,7 |
| 34 | Odessa | 08-05-2026 08:15 | 4,2 | 95 | 0 | 0 | 221 | 25 | 1024,4 |
| 33 | Odessa | 08-05-2026 08:00 | 3,6 | 95 | 0 | 0 | 27 | 16 | 1024,1 |
| 32 | Odessa | 08-05-2026 07:45 | 2,6 | 94 | 0 | 1,3 | 57 | 11 | 1023,8 |
| 31 | Odessa | 08-05-2026 07:30 | 2,3 | 94 | 0 | 0 | 79 | 5 | 1023,8 |
| 30 | Odessa | 08-05-2026 07:15 | 2,3 | 94 | 0 | 0 | 72 | 0 | 1024 |
| 29 | Odessa | 08-05-2026 07:00 | 2 | 94 | 0 | 0,9 | 79 | 0 | 1024,3 |
| 28 | Odessa | 08-05-2026 06:45 | 1,7 | 93 | 0 | 0,4 | 67 | 0 | 1024,4 |
| 27 | Odessa | 08-05-2026 06:30 | 1,8 | 93 | 0 | 0 | 97 | 0 | 1024,8 |
| 26 | Odessa | 08-05-2026 06:15 | 2,2 | 93 | 0 | 0 | 219 | 0 | 1024,8 |
| 25 | Odessa | 08-05-2026 06:00 | 2,3 | 93 | 0 | 0 | 56 | 0 | 1024,8 |
| 24 | Odessa | 08-05-2026 05:45 | 2,4 | 93 | 0 | 0 | 56 | 0 | 1024,4 |
| 23 | Odessa | 08-05-2026 05:30 | 2,1 | 93 | 0 | 0,4 | 52 | 0 | 1024,7 |
| 22 | Odessa | 08-05-2026 05:15 | 2,2 | 93 | 0 | 0 | 177 | 0 | 1024,7 |
| 21 | Odessa | 08-05-2026 05:00 | 2,2 | 93 | 0 | 0 | 177 | 0 | 1024,8 |
| 20 | Odessa | 08-05-2026 04:45 | 2,3 | 92 | 0 | 0 | 177 | 0 | 1024,8 |
| 19 | Odessa | 08-05-2026 04:30 | 2,4 | 92 | 0 | 0 | 177 | 0 | 1024,5 |
| 18 | Odessa | 08-05-2026 04:15 | 2,6 | 92 | 0 | 0 | 177 | 0 | 1024,6 |
| 17 | Odessa | 08-05-2026 04:00 | 2,9 | 91 | 0 | 0 | 177 | 0 | 1024,7 |
| 16 | Odessa | 08-05-2026 03:45 | 3,4 | 91 | 0 | 0 | 177 | 0 | 1024,9 |
| 15 | Odessa | 08-05-2026 03:30 | 4,1 | 91 | 0 | 0 | 177 | 0 | 1024,9 |
| 14 | Odessa | 08-05-2026 03:15 | 4,4 | 92 | 0 | 0 | 177 | 0 | 1025,6 |
| 13 | Odessa | 08-05-2026 03:00 | 4,2 | 90 | 0 | 0 | 118 | 0 | 1025,6 |
| 12 | Odessa | 08-05-2026 02:45 | 4,9 | 91 | 0 | 0 | 209 | 0 | 1025,5 |
| 11 | Odessa | 08-05-2026 02:30 | 5,1 | 90 | 0 | 0 | 209 | 0 | 1025,6 |
| 10 | Odessa | 08-05-2026 02:15 | 5,5 | 90 | 0 | 0 | 209 | 0 | 1025,7 |
| 9 | Odessa | 08-05-2026 02:00 | 5,6 | 90 | 0 | 0 | 228 | 0 | 1025,9 |
| 8 | Odessa | 08-05-2026 01:45 | 6 | 90 | 0 | 0 | 208 | 0 | 1025,8 |
| 7 | Odessa | 08-05-2026 01:30 | 5,9 | 90 | 0 | 0 | 182 | 0 | 1026 |
| 6 | Odessa | 08-05-2026 01:15 | 6,2 | 89 | 0 | 0 | 135 | 0 | 1025,9 |
| 5 | Odessa | 08-05-2026 01:00 | 6,6 | 89 | 0 | 0 | 136 | 0 | 1026,1 |
| 4 | Odessa | 08-05-2026 00:45 | 6,7 | 89 | 0 | 0,4 | 218 | 0 | 1026,2 |
| 3 | Odessa | 08-05-2026 00:30 | 6,9 | 89 | 0 | 0,4 | 209 | 0 | 1026,4 |
| 2 | Odessa | 08-05-2026 00:15 | 7 | 89 | 0 | 0 | 224 | 0 | 1026,7 |
| 1 | Odessa | 08-05-2026 00:00 | 7,4 | 88 | 0 | 0 | 213 | 0 | 1026,6 |